Time;durP1;ratioP1;P1;durP2;ratioP2;P2;SDS_P1;SDS_P2;PMS_P1;PMS_P2;Temp;Humidity;BMP_temperature;BMP_pressure;BME280_temperature;BME280_humidity;BME280_pressure;Samples;Min_cycle;Max_cycle;Signal;HPM_P1;HPM_P2
2023/05/18 00:01:22;;;;;;;16.60;13.60;;;;;;;11.82;100.00;97195.41;110174;1244;58838;-74
2023/05/18 00:03:55;;;;;;;15.50;13.00;;;;;;;11.82;100.00;97192.96;110146;1245;70106;-74
2023/05/18 00:06:27;;;;;;;16.30;13.70;;;;;;;11.81;100.00;97192.71;110190;1241;69443;-73
2023/05/18 00:08:59;;;;;;;16.40;13.70;;;;;;;11.80;100.00;97192.23;110153;1244;69131;-74
2023/05/18 00:11:32;;;;;;;16.90;14.20;;;;;;;11.80;100.00;97192.59;110137;1242;58889;-74
2023/05/18 00:14:06;;;;;;;16.60;14.20;;;;;;;11.79;100.00;97195.16;110196;1245;58885;-73
2023/05/18 00:16:37;;;;;;;17.40;14.30;;;;;;;11.77;100.00;97195.14;110210;1246;68717;-73
2023/05/18 00:19:08;;;;;;;20.00;14.70;;;;;;;11.76;100.00;97196.97;110174;1245;69027;-74
2023/05/18 00:21:46;;;;;;;16.30;13.80;;;;;;;11.76;100.00;97197.63;110133;1245;69312;-75
2023/05/18 00:24:20;;;;;;;19.70;14.30;;;;;;;11.77;100.00;97199.17;110156;1245;58949;-75
2023/05/18 00:26:52;;;;;;;14.10;12.50;;;;;;;11.76;100.00;97196.11;110144;1245;58862;-75
2023/05/18 00:29:25;;;;;;;14.90;12.40;;;;;;;11.75;100.00;97193.58;110184;1241;69281;-75
2023/05/18 00:31:58;;;;;;;17.10;14.10;;;;;;;11.73;100.00;97195.79;110120;1244;69146;-73
2023/05/18 00:34:32;;;;;;;15.80;13.30;;;;;;;11.72;100.00;97197.62;110170;1241;68522;-74
2023/05/18 00:37:05;;;;;;;17.00;13.90;;;;;;;11.70;100.00;97195.27;110128;1246;59278;-74
2023/05/18 00:39:41;;;;;;;14.20;12.60;;;;;;;11.70;100.00;97195.70;110115;1242;58888;-74
2023/05/18 00:42:16;;;;;;;14.80;13.10;;;;;;;11.69;100.00;97198.36;110162;1244;69440;-74
2023/05/18 00:44:50;;;;;;;14.60;12.30;;;;;;;11.69;100.00;97198.19;110139;1241;69174;-74
2023/05/18 00:47:24;;;;;;;18.30;13.90;;;;;;;11.69;100.00;97196.27;110124;1244;69288;-74
2023/05/18 00:49:56;;;;;;;14.50;11.30;;;;;;;11.69;100.00;97195.75;110208;1243;58928;-74
2023/05/18 00:52:27;;;;;;;;;;;;;;;11.68;100.00;97191.95;110195;1248;58940;-75
2023/05/18 00:54:58;;;;;;;13.70;11.50;;;;;;;11.68;100.00;97194.11;110216;1245;69614;-75
2023/05/18 00:57:32;;;;;;;14.30;9.60;;;;;;;11.68;100.00;97193.77;110180;1241;67620;-74
2023/05/18 01:00:09;;;;;;;12.00;10.20;;;;;;;11.67;100.00;97189.58;110117;1245;69308;-74
2023/05/18 01:02:44;;;;;;;11.70;9.40;;;;;;;11.66;100.00;97188.10;110219;1246;58941;-74
2023/05/18 01:05:16;;;;;;;12.10;8.90;;;;;;;11.66;100.00;97185.88;110183;1244;58817;-75
2023/05/18 01:07:49;;;;;;;10.00;8.90;;;;;;;11.66;100.00;97187.48;110132;1245;71446;-75
2023/05/18 01:10:20;;;;;;;9.90;8.30;;;;;;;11.65;100.00;97185.10;110170;1241;69338;-74
2023/05/18 01:13:12;;;;;;;10.00;8.90;;;;;;;11.66;100.00;97183.77;110170;1241;68741;-74
2023/05/18 01:15:43;;;;;;;;;;;;;;;11.67;100.00;97185.39;110163;1243;58866;-74
2023/05/18 01:18:43;;;;;;;9.80;7.80;;;;;;;11.69;100.00;97186.70;110156;1244;58841;-74
2023/05/18 01:21:24;;;;;;;10.40;8.20;;;;;;;11.69;100.00;97179.69;110182;1241;69856;-74
2023/05/18 01:24:14;;;;;;;8.90;7.70;;;;;;;11.70;100.00;97180.33;110167;1243;69230;-74
2023/05/18 01:26:49;;;;;;;8.10;7.10;;;;;;;11.70;100.00;97181.48;110176;1243;69285;-74
2023/05/18 01:29:20;;;;;;;8.40;7.00;;;;;;;11.72;100.00;97187.34;110193;1244;58956;-74
2023/05/18 01:31:50;;;;;;;9.10;7.80;;;;;;;11.72;100.00;97192.05;110140;1242;58937;-74
2023/05/18 01:34:23;;;;;;;9.70;7.80;;;;;;;11.72;100.00;97196.60;110194;1245;70398;-74
2023/05/18 01:36:53;;;;;;;8.80;7.90;;;;;;;11.71;100.00;97196.98;110151;1245;69769;-75
2023/05/18 01:39:23;;;;;;;10.10;7.90;;;;;;;11.71;100.00;97199.27;110154;1245;69342;-74
2023/05/18 01:42:03;;;;;;;8.70;7.20;;;;;;;11.71;100.00;97202.24;110213;1244;58926;-74
2023/05/18 01:44:45;;;;;;;8.40;6.40;;;;;;;11.71;100.00;97197.15;110163;1244;58844;-75
2023/05/18 01:47:17;;;;;;;7.30;6.30;;;;;;;11.71;100.00;97194.55;110160;1241;70408;-75
2023/05/18 01:49:58;;;;;;;8.20;5.80;;;;;;;11.70;100.00;97195.80;110154;1245;69308;-74
2023/05/18 01:52:41;;;;;;;7.10;5.60;;;;;;;11.71;100.00;97196.84;110149;1243;69088;-75
2023/05/18 01:55:17;;;;;;;7.10;6.40;;;;;;;11.69;100.00;97198.52;110128;1245;58866;-75
2023/05/18 01:57:52;;;;;;;6.80;5.90;;;;;;;11.70;100.00;97196.21;110203;1241;58878;-73
2023/05/18 02:00:25;;;;;;;8.70;6.10;;;;;;;11.70;100.00;97199.68;110148;1241;70599;-75
2023/05/18 02:02:56;;;;;;;9.20;6.40;;;;;;;11.70;100.00;97203.55;110151;1245;68518;-74
2023/05/18 02:05:28;;;;;;;8.30;6.80;;;;;;;11.68;100.00;97203.13;110177;1241;69365;-74
2023/05/18 02:08:00;;;;;;;9.30;7.20;;;;;;;11.68;100.00;97207.88;110170;1244;58913;-74
2023/05/18 02:10:31;;;;;;;10.70;7.20;;;;;;;11.68;100.00;97204.24;110099;1244;58895;-74
2023/05/18 02:13:02;;;;;;;6.70;5.70;;;;;;;11.67;100.00;97206.36;110156;1245;70433;-74
2023/05/18 02:15:33;;;;;;;8.40;6.80;;;;;;;11.67;100.00;97208.69;110115;1245;69051;-74
2023/05/18 02:18:04;;;;;;;7.90;6.80;;;;;;;11.66;100.00;97214.83;110143;1241;68558;-75
2023/05/18 02:20:39;;;;;;;7.50;6.70;;;;;;;11.67;100.00;97219.45;110154;1251;58918;-75
2023/05/18 02:23:12;;;;;;;7.20;6.40;;;;;;;11.66;100.00;97219.42;110174;1245;58859;-74
2023/05/18 02:25:45;;;;;;;7.40;6.30;;;;;;;11.65;100.00;97223.10;110183;1244;69839;-74
2023/05/18 02:28:16;;;;;;;6.60;5.60;;;;;;;11.65;100.00;97223.66;110132;1244;69273;-74
2023/05/18 02:30:47;;;;;;;6.10;5.40;;;;;;;11.65;100.00;97229.09;110148;1241;69660;-74
2023/05/18 02:33:25;;;;;;;7.90;6.20;;;;;;;11.64;100.00;97222.46;110199;1241;58956;-75
2023/05/18 02:35:57;;;;;;;6.90;5.80;;;;;;;11.65;100.00;97227.66;110158;1244;58931;-74
2023/05/18 02:38:28;;;;;;;8.00;5.70;;;;;;;11.65;100.00;97228.73;110219;1241;69843;-74
2023/05/18 02:40:59;;;;;;;8.50;5.60;;;;;;;11.65;100.00;97229.95;110213;1244;68387;-75
2023/05/18 02:43:30;;;;;;;7.80;6.50;;;;;;;11.65;100.00;97232.75;110264;1243;69901;-74
2023/05/18 02:46:03;;;;;;;6.60;5.70;;;;;;;11.64;100.00;97230.51;110182;1244;58932;-74
2023/05/18 02:48:35;;;;;;;7.10;6.00;;;;;;;11.64;100.00;97234.38;110124;1244;58857;-74
2023/05/18 02:51:06;;;;;;;7.50;6.60;;;;;;;11.64;100.00;97237.52;110169;1245;69586;-74
2023/05/18 02:53:38;;;;;;;7.10;5.90;;;;;;;11.65;100.00;97238.37;110172;1241;69222;-74
2023/05/18 02:56:11;;;;;;;9.90;7.40;;;;;;;11.65;100.00;97237.98;110152;1244;69314;-74
2023/05/18 02:58:47;;;;;;;8.20;6.80;;;;;;;11.65;100.00;97238.82;110152;1244;58924;-74
2023/05/18 03:01:27;;;;;;;9.90;7.20;;;;;;;11.66;100.00;97240.02;110134;1245;58891;-74
2023/05/18 03:03:57;;;;;;;9.60;6.40;;;;;;;11.66;100.00;97239.66;110203;1244;69757;-76
2023/05/18 03:06:29;;;;;;;7.30;5.80;;;;;;;11.67;100.00;97240.46;110228;1241;68356;-74
2023/05/18 03:08:58;;;;;;;8.20;6.30;;;;;;;11.67;100.00;97241.26;110119;1245;68229;-74
2023/05/18 03:11:34;;;;;;;7.20;6.40;;;;;;;11.68;100.00;97245.06;110190;1244;58927;-74
2023/05/18 03:14:05;;;;;;;6.90;6.20;;;;;;;11.67;100.00;97243.71;110140;1241;58872;-74
2023/05/18 03:16:37;;;;;;;9.40;7.50;;;;;;;11.65;100.00;97246.48;110174;1241;70587;-73
2023/05/18 03:19:13;;;;;;;11.60;9.10;;;;;;;11.63;100.00;97246.01;110143;1244;69363;-76
2023/05/18 03:21:42;;;;;;;8.70;7.50;;;;;;;11.57;100.00;97245.45;110145;1244;69127;-74
2023/05/18 03:24:13;;;;;;;7.70;6.50;;;;;;;11.52;100.00;97247.91;110138;1244;58937;-75
2023/05/18 03:26:46;;;;;;;7.30;5.90;;;;;;;11.49;100.00;97246.02;110170;1241;58878;-76
2023/05/18 03:29:15;;;;;;;8.60;7.40;;;;;;;11.50;100.00;97253.00;110062;1242;70594;-75
2023/05/18 03:31:45;;;;;;;7.60;6.80;;;;;;;11.48;100.00;97253.08;110171;1244;69125;-74
2023/05/18 03:34:14;;;;;;;9.40;7.80;;;;;;;11.48;100.00;97258.14;110105;1244;69249;-74
2023/05/18 03:36:46;;;;;;;;;;;;;;;11.48;100.00;97260.44;110106;1241;58927;-74
2023/05/18 03:39:15;;;;;;;14.40;10.70;;;;;;;11.47;100.00;97265.03;110134;1245;58933;-73
2023/05/18 03:41:45;;;;;;;10.10;8.60;;;;;;;11.46;100.00;97261.80;110146;1241;71173;-75
2023/05/18 03:44:15;;;;;;;9.80;7.60;;;;;;;11.44;100.00;97262.14;110098;1245;69227;-75
2023/05/18 03:46:45;;;;;;;12.10;9.30;;;;;;;11.44;100.00;97258.67;110184;1241;69242;-76
2023/05/18 03:49:16;;;;;;;9.80;8.00;;;;;;;11.43;100.00;97259.08;110167;1243;58937;-73
2023/05/18 03:51:46;;;;;;;8.70;7.10;;;;;;;11.44;100.00;97263.39;110136;1244;58875;-74
2023/05/18 03:54:16;;;;;;;8.40;7.40;;;;;;;11.46;100.00;97266.71;110146;1241;69856;-74
2023/05/18 03:56:47;;;;;;;10.20;8.70;;;;;;;11.47;100.00;97269.61;110150;1241;69274;-74
2023/05/18 03:59:18;;;;;;;8.80;7.80;;;;;;;11.49;100.00;97268.21;110202;1243;69691;-74
2023/05/18 04:01:52;;;;;;;9.40;8.30;;;;;;;11.51;100.00;97272.11;110104;1247;58899;-74
2023/05/18 04:04:26;;;;;;;8.70;7.80;;;;;;;11.53;100.00;97269.83;110132;1244;58952;-74
2023/05/18 04:06:55;;;;;;;8.30;7.00;;;;;;;11.55;100.00;97270.23;110088;1245;71125;-75
2023/05/18 04:09:26;;;;;;;;;;;;;;;11.56;100.00;97278.48;110125;1243;69842;-74
2023/05/18 04:11:57;;;;;;;8.30;7.30;;;;;;;11.56;100.00;97277.61;110162;1243;69318;-74
2023/05/18 04:14:26;;;;;;;7.70;6.90;;;;;;;11.57;100.00;97281.39;110196;1243;58931;-74
2023/05/18 04:16:57;;;;;;;8.70;7.80;;;;;;;11.57;100.00;97284.02;110136;1244;58925;-74
2023/05/18 04:19:27;;;;;;;11.00;7.90;;;;;;;11.58;100.00;97289.00;110147;1244;70239;-74
2023/05/18 04:21:58;;;;;;;9.80;8.10;;;;;;;11.59;100.00;97293.11;110194;1244;68276;-73
2023/05/18 04:24:28;;;;;;;11.30;8.60;;;;;;;11.59;100.00;97292.02;110191;1244;69287;-74
2023/05/18 04:27:03;;;;;;;8.40;6.80;;;;;;;11.60;100.00;97295.64;110213;1244;58934;-74
2023/05/18 04:29:33;;;;;;;8.80;7.00;;;;;;;11.60;100.00;97299.64;110260;1244;58878;-74
2023/05/18 04:32:02;;;;;;;7.60;6.80;;;;;;;11.59;100.00;97299.85;110143;1245;70294;-74
2023/05/18 04:34:34;;;;;;;6.80;6.10;;;;;;;11.59;100.00;97298.15;110150;1244;69193;-75
2023/05/18 04:37:09;;;;;;;8.10;7.30;;;;;;;11.59;100.00;97302.51;110203;1241;69558;-75
2023/05/18 04:39:41;;;;;;;9.80;7.60;;;;;;;11.59;100.00;97305.49;110151;1244;58962;-74
2023/05/18 04:42:12;;;;;;;8.50;6.70;;;;;;;11.60;100.00;97301.59;110141;1244;58840;-74
2023/05/18 04:44:44;;;;;;;9.00;7.50;;;;;;;11.61;100.00;97305.66;110155;1244;71140;-74
2023/05/18 04:47:13;;;;;;;10.40;8.60;;;;;;;11.63;100.00;97307.60;110140;1241;69285;-74
2023/05/18 04:49:43;;;;;;;10.30;8.50;;;;;;;11.64;100.00;97310.27;110122;1246;69098;-75
2023/05/18 04:52:13;;;;;;;9.20;8.10;;;;;;;11.66;100.00;97306.48;110175;1241;58868;-74
2023/05/18 04:54:42;;;;;;;11.00;8.80;;;;;;;11.67;100.00;97307.77;110162;1241;58887;-74
2023/05/18 04:57:13;;;;;;;10.20;8.20;;;;;;;11.69;100.00;97310.92;110193;1241;70629;-74
2023/05/18 04:59:46;;;;;;;8.50;7.40;;;;;;;11.70;100.00;97318.36;110170;1243;69236;-75
2023/05/18 05:02:16;;;;;;;8.90;7.50;;;;;;;11.70;100.00;97322.42;110176;1244;69249;-75
2023/05/18 05:04:46;;;;;;;;;;;;;;;11.70;100.00;97322.23;110171;1243;59334;-75
2023/05/18 05:07:16;;;;;;;11.00;8.90;;;;;;;11.69;100.00;97323.73;110114;1244;58927;-74
2023/05/18 05:09:47;;;;;;;8.60;7.40;;;;;;;11.69;100.00;97327.05;110199;1241;70676;-75
2023/05/18 05:12:17;;;;;;;7.20;6.50;;;;;;;11.70;100.00;97334.80;110177;1241;69673;-75
2023/05/18 05:14:46;;;;;;;;;;;;;;;11.71;100.00;97338.52;110174;1244;68429;-75
2023/05/18 05:17:16;;;;;;;10.80;8.00;;;;;;;11.73;100.00;97339.60;110123;1244;58934;-75
2023/05/18 05:19:45;;;;;;;9.60;8.00;;;;;;;11.76;100.00;97339.81;110214;1244;58830;-75
2023/05/18 05:22:16;;;;;;;9.40;7.10;;;;;;;11.79;100.00;97340.46;110126;1244;70943;-75
2023/05/18 05:24:46;;;;;;;8.30;7.40;;;;;;;11.80;100.00;97343.48;110142;1241;68893;-74
2023/05/18 05:27:15;;;;;;;8.10;6.70;;;;;;;11.83;100.00;97345.34;110130;1243;69279;-75
2023/05/18 05:29:46;;;;;;;9.20;8.00;;;;;;;11.84;100.00;97345.96;110125;1241;58932;-75
2023/05/18 05:32:15;;;;;;;9.10;7.70;;;;;;;11.86;100.00;97344.23;110194;1242;58937;-74
2023/05/18 05:34:46;;;;;;;;;;;;;;;11.88;100.00;97346.88;110183;1245;69998;-74
2023/05/18 05:37:17;;;;;;;11.40;8.40;;;;;;;11.87;100.00;97343.77;110184;1245;69522;-75
2023/05/18 05:39:48;;;;;;;10.90;9.10;;;;;;;11.89;100.00;97347.30;110122;1244;68667;-75
2023/05/18 05:42:19;;;;;;;10.70;8.50;;;;;;;11.91;100.00;97349.21;110140;1241;59801;-74
2023/05/18 05:44:48;;;;;;;10.50;7.70;;;;;;;11.92;100.00;97345.33;110134;1242;59659;-76
2023/05/18 05:47:17;;;;;;;9.50;8.30;;;;;;;11.93;100.00;97344.73;110154;1241;72321;-76
2023/05/18 05:49:46;;;;;;;11.80;7.80;;;;;;;11.95;100.00;97349.77;110164;1241;67602;-74
2023/05/18 05:52:15;;;;;;;10.10;8.70;;;;;;;11.98;100.00;97352.86;110191;1243;68865;-75
2023/05/18 05:54:45;;;;;;;12.30;9.60;;;;;;;12.03;100.00;97349.91;110156;1241;59754;-74
2023/05/18 05:57:16;;;;;;;12.90;10.00;;;;;;;12.05;100.00;97354.41;110208;1241;59724;-74
2023/05/18 05:59:46;;;;;;;9.90;8.80;;;;;;;12.06;100.00;97355.92;110213;1245;71409;-74
2023/05/18 06:02:15;;;;;;;11.50;8.50;;;;;;;12.07;100.00;97357.74;110233;1242;69208;-74
2023/05/18 06:04:46;;;;;;;10.00;9.00;;;;;;;12.11;100.00;97359.15;110195;1241;69845;-74
2023/05/18 06:07:16;;;;;;;11.20;9.50;;;;;;;12.18;100.00;97362.66;110143;1244;59689;-72
2023/05/18 06:09:45;;;;;;;10.10;8.70;;;;;;;12.25;100.00;97361.20;110220;1243;59646;-73
2023/05/18 06:12:14;;;;;;;10.90;8.50;;;;;;;12.32;100.00;97366.58;110209;1241;70664;-73
2023/05/18 06:14:44;;;;;;;9.10;7.70;;;;;;;12.39;100.00;97366.23;110175;1245;69654;-73
2023/05/18 06:17:13;;;;;;;10.20;8.90;;;;;;;12.45;100.00;97367.64;110127;1242;69845;-73
2023/05/18 06:19:43;;;;;;;9.10;7.50;;;;;;;12.52;100.00;97369.70;110177;1245;59686;-72
2023/05/18 06:22:12;;;;;;;13.30;9.80;;;;;;;12.60;100.00;97369.59;110137;1244;60041;-72
2023/05/18 06:24:50;;;;;;;9.90;8.20;;;;;;;12.64;100.00;97375.36;110250;1241;72053;-72
2023/05/18 06:27:33;;;;;;;11.30;8.40;;;;;;;12.68;100.00;97376.89;110197;1244;70168;-74
2023/05/18 06:30:18;;;;;;;10.10;9.10;;;;;;;12.79;100.00;97376.78;110226;1241;69254;-74
2023/05/18 06:33:16;;;;;;;10.80;8.90;;;;;;;12.88;100.00;97379.12;110171;1244;59677;-73
2023/05/18 06:35:46;;;;;;;9.80;8.90;;;;;;;12.98;100.00;97382.04;110079;1244;59627;-74
2023/05/18 06:38:16;;;;;;;9.40;8.40;;;;;;;13.05;100.00;97384.92;110155;1241;71395;-73
2023/05/18 06:40:46;;;;;;;9.60;7.50;;;;;;;13.11;100.00;97388.77;110131;1245;68951;-72
2023/05/18 06:43:15;;;;;;;11.30;9.10;;;;;;;13.20;100.00;97390.85;110165;1241;69412;-72
2023/05/18 06:45:49;;;;;;;12.90;10.60;;;;;;;13.27;100.00;97392.03;110096;1244;59701;-73
2023/05/18 06:48:29;;;;;;;11.20;9.10;;;;;;;13.30;100.00;97391.76;110159;1243;59682;-73
2023/05/18 06:50:58;;;;;;;11.50;9.90;;;;;;;13.37;100.00;97391.52;110160;1243;71417;-72
2023/05/18 06:53:29;;;;;;;11.50;9.60;;;;;;;13.45;100.00;97395.22;110210;1243;69218;-73
2023/05/18 06:55:58;;;;;;;9.70;8.70;;;;;;;13.56;100.00;97394.31;110220;1241;69156;-73
2023/05/18 06:58:28;;;;;;;11.60;10.40;;;;;;;13.64;100.00;97394.81;110186;1243;59731;-73
2023/05/18 07:01:01;;;;;;;11.10;9.90;;;;;;;13.70;100.00;97395.73;110144;1241;59611;-73
2023/05/18 07:03:31;;;;;;;13.20;10.80;;;;;;;13.85;100.00;97393.77;110207;1241;71517;-73
2023/05/18 07:06:03;;;;;;;11.30;9.70;;;;;;;14.00;100.00;97395.39;110214;1244;69739;-72
2023/05/18 07:08:32;;;;;;;13.60;10.80;;;;;;;14.07;100.00;97401.13;110188;1245;69167;-73
2023/05/18 07:11:02;;;;;;;12.30;11.10;;;;;;;14.22;100.00;97402.80;110199;1243;59657;-73
2023/05/18 07:13:32;;;;;;;10.80;9.00;;;;;;;14.41;100.00;97401.30;110162;1244;59716;-72
2023/05/18 07:16:01;;;;;;;12.00;9.50;;;;;;;14.66;100.00;97398.73;110207;1244;71356;-71
2023/05/18 07:18:31;;;;;;;8.60;7.70;;;;;;;14.94;100.00;97398.38;110214;1243;69776;-72
2023/05/18 07:21:00;;;;;;;11.00;9.20;;;;;;;15.26;100.00;97398.95;110171;1241;68921;-73
2023/05/18 07:23:30;;;;;;;11.20;10.00;;;;;;;15.58;100.00;97395.45;110153;1241;59682;-73
2023/05/18 07:25:59;;;;;;;14.30;11.80;;;;;;;15.88;100.00;97389.62;110192;1244;59688;-72
2023/05/18 07:28:28;;;;;;;11.90;10.70;;;;;;;16.12;99.84;97393.32;110204;1244;72079;-72
2023/05/18 07:30:57;;;;;;;12.30;10.90;;;;;;;16.35;99.46;97393.98;110206;1242;70038;-73
2023/05/18 07:33:26;;;;;;;11.90;10.70;;;;;;;16.53;96.40;97386.38;110175;1241;70037;-72
2023/05/18 07:35:55;;;;;;;14.50;11.60;;;;;;;16.86;99.23;97386.34;110204;1244;59708;-71
2023/05/18 07:38:25;;;;;;;11.10;9.90;;;;;;;17.00;92.44;97385.24;110188;1243;59689;-72
2023/05/18 07:40:53;;;;;;;10.60;9.60;;;;;;;17.17;89.55;97388.71;110195;1241;71695;-72
2023/05/18 07:43:22;;;;;;;10.70;9.60;;;;;;;17.37;89.71;97391.63;110199;1243;68108;-72
2023/05/18 07:45:52;;;;;;;11.30;9.00;;;;;;;17.65;89.42;97393.33;110208;1241;68431;-72
2023/05/18 07:48:22;;;;;;;9.70;8.80;;;;;;;17.81;85.29;97395.10;110177;1244;59740;-71
2023/05/18 07:50:52;;;;;;;11.30;9.40;;;;;;;18.00;84.08;97392.41;110171;1243;59749;-71
2023/05/18 07:53:21;;;;;;;9.80;8.80;;;;;;;18.18;81.36;97398.98;110121;1241;72330;-71
2023/05/18 07:55:51;;;;;;;8.10;7.30;;;;;;;18.32;79.86;97403.37;110217;1243;68452;-72
2023/05/18 07:58:20;;;;;;;8.80;7.90;;;;;;;18.69;81.07;97404.97;110195;1245;69123;-72
2023/05/18 08:00:50;;;;;;;9.20;8.30;;;;;;;18.91;79.96;97400.48;110201;1241;59754;-69
2023/05/18 08:03:20;;;;;;;8.00;7.10;;;;;;;19.05;77.13;97400.30;110199;1241;59650;-70
2023/05/18 08:05:49;;;;;;;8.10;7.30;;;;;;;19.32;79.50;97403.04;110197;1244;71330;-70
2023/05/18 08:08:19;;;;;;;7.80;7.00;;;;;;;19.62;75.47;97406.99;110243;1245;68848;-71
2023/05/18 08:10:48;;;;;;;;;;;;;;;19.91;74.61;97404.80;110195;1241;69893;-71
2023/05/18 08:13:17;;;;;;;7.20;6.30;;;;;;;20.41;76.93;97399.64;110202;1243;59724;-71
2023/05/18 08:15:47;;;;;;;6.50;5.90;;;;;;;20.93;73.00;97398.45;110204;1244;59720;-72
2023/05/18 08:18:31;;;;;;;6.30;5.70;;;;;;;21.53;74.46;97396.88;110156;1243;71366;-69
2023/05/18 08:21:02;;;;;;;6.60;5.90;;;;;;;22.19;69.65;97395.65;110185;1244;69794;-71
2023/05/18 08:23:32;;;;;;;7.40;6.60;;;;;;;22.76;66.16;97394.26;110188;1245;69703;-71
2023/05/18 08:26:02;;;;;;;7.40;6.70;;;;;;;23.24;68.25;97391.63;110228;1241;59706;-70
2023/05/18 08:28:32;;;;;;;8.70;7.80;;;;;;;23.67;67.75;97391.54;110217;1241;59686;-70
2023/05/18 08:31:01;;;;;;;8.20;6.80;;;;;;;23.73;60.09;97386.94;110258;1245;71957;-71
2023/05/18 08:33:31;;;;;;;7.20;6.50;;;;;;;23.86;60.99;97388.63;110156;1243;69700;-70
2023/05/18 08:36:00;;;;;;;6.30;5.70;;;;;;;24.07;60.02;97387.92;110202;1243;69251;-71
2023/05/18 08:38:30;;;;;;;;;;;;;;;24.33;57.79;97387.00;110188;1244;59674;-70
2023/05/18 08:41:19;;;;;;;7.50;6.80;;;;;;;24.72;60.11;97391.88;110202;1241;59666;-70
2023/05/18 08:43:52;;;;;;;;;;;;;;;25.03;55.96;97389.58;110192;1241;71393;-71
2023/05/18 08:46:32;;;;;;;7.20;6.30;;;;;;;25.32;54.84;97389.80;110236;1241;69350;-72
2023/05/18 08:49:04;;;;;;;5.70;5.10;;;;;;;25.44;52.00;97391.30;110217;1244;69259;-71
2023/05/18 08:51:35;;;;;;;5.10;4.60;;;;;;;25.71;50.79;97394.06;110188;1244;59744;-71
2023/05/18 08:54:04;;;;;;;5.40;4.70;;;;;;;25.61;48.90;97389.85;110144;1241;59707;-72
2023/05/18 08:56:35;;;;;;;5.00;4.60;;;;;;;25.69;51.56;97390.72;110216;1243;71185;-71
2023/05/18 08:59:07;;;;;;;5.00;4.40;;;;;;;25.89;46.52;97390.77;110253;1241;69279;-72
2023/05/18 09:01:36;;;;;;;4.40;4.00;;;;;;;26.00;49.39;97390.44;110200;1244;70192;-71
2023/05/18 09:04:06;;;;;;;4.50;4.10;;;;;;;25.32;44.05;97388.73;110181;1244;59709;-70
2023/05/18 09:06:36;;;;;;;4.20;3.80;;;;;;;25.30;46.18;97387.25;110203;1241;59673;-72
2023/05/18 09:09:05;;;;;;;4.60;4.20;;;;;;;25.80;48.78;97390.51;110236;1243;70460;-70
2023/05/18 09:11:34;;;;;;;6.10;4.10;;;;;;;25.88;47.89;97385.11;110240;1244;68796;-71
2023/05/18 09:14:04;;;;;;;4.50;4.00;;;;;;;25.90;48.33;97381.51;110182;1243;69324;-69
2023/05/18 09:16:33;;;;;;;;;;;;;;;25.99;47.45;97378.29;110233;1241;59740;-71
2023/05/18 09:19:03;;;;;;;4.00;3.40;;;;;;;26.33;45.88;97381.80;110170;1244;59689;-72
2023/05/18 09:21:32;;;;;;;4.90;3.40;;;;;;;26.58;44.32;97389.00;110164;1241;71967;-71
2023/05/18 09:24:03;;;;;;;5.00;3.60;;;;;;;26.61;43.98;97388.23;110176;1243;69759;-71
2023/05/18 09:26:32;;;;;;;5.40;4.20;;;;;;;26.32;44.05;97388.36;110172;1244;69248;-72
2023/05/18 09:29:01;;;;;;;;;;;;;;;26.02;45.16;97386.60;110223;1243;59747;-72
2023/05/18 09:31:30;;;;;;;4.90;4.40;;;;;;;25.97;44.85;97384.41;110160;1243;59693;-70
2023/05/18 09:34:00;;;;;;;4.30;3.90;;;;;;;26.09;44.79;97381.27;110203;1244;72319;-71
2023/05/18 09:36:31;;;;;;;5.00;4.20;;;;;;;26.22;43.54;97378.42;110183;1241;69267;-69
2023/05/18 09:39:08;;;;;;;4.30;3.90;;;;;;;26.14;40.60;97377.13;110186;1241;69497;-70
2023/05/18 09:41:39;;;;;;;5.10;3.90;;;;;;;25.98;41.11;97375.06;110092;1241;59726;-69
2023/05/18 09:44:08;;;;;;;4.90;3.90;;;;;;;25.89;43.27;97375.52;110136;1243;59727;-70
2023/05/18 09:46:39;;;;;;;4.00;3.30;;;;;;;26.43;43.27;97374.98;110241;1244;71575;-71
2023/05/18 09:49:08;;;;;;;4.20;3.00;;;;;;;26.93;42.12;97369.32;110215;1243;69284;-71
2023/05/18 09:51:38;;;;;;;3.80;3.10;;;;;;;26.56;37.32;97373.87;110224;1245;69853;-72
2023/05/18 09:54:09;;;;;;;3.60;3.20;;;;;;;27.24;38.16;97371.18;110279;1242;59753;-72
2023/05/18 09:56:39;;;;;;;3.50;2.80;;;;;;;27.33;37.53;97370.70;110265;1243;59633;-72
2023/05/18 09:59:10;;;;;;;;;;;;;;;27.49;36.39;97369.66;110287;1241;70457;-72
2023/05/18 10:02:00;;;;;;;3.80;3.20;;;;;;;27.59;35.76;97369.77;110237;1241;69843;-70
2023/05/18 10:04:41;;;;;;;4.20;3.80;;;;;;;27.15;34.43;97365.13;110271;1243;69860;-69
2023/05/18 10:07:15;;;;;;;3.90;3.50;;;;;;;27.47;34.89;97364.40;110337;1244;59767;-69
2023/05/18 10:09:45;;;;;;;4.10;3.20;;;;;;;27.58;37.28;97363.30;110242;1249;59687;-71
2023/05/18 10:12:16;;;;;;;3.20;2.90;;;;;;;27.49;36.97;97363.34;110232;1244;71956;-72
2023/05/18 10:14:46;;;;;;;4.30;2.80;;;;;;;27.72;35.25;97366.27;110239;1241;69011;-72
2023/05/18 10:17:16;;;;;;;4.20;3.10;;;;;;;27.38;35.80;97365.44;110232;1241;69234;-72
2023/05/18 10:19:49;;;;;;;3.50;3.10;;;;;;;27.17;36.10;97365.59;110220;1243;59705;-71
2023/05/18 10:22:22;;;;;;;4.70;3.70;;;;;;;26.86;35.27;97369.57;110286;1243;59673;-71
2023/05/18 10:24:51;;;;;;;4.70;3.60;;;;;;;26.52;35.51;97371.35;110243;1241;71078;-72
2023/05/18 10:27:26;;;;;;;3.90;3.50;;;;;;;26.01;36.66;97371.10;110224;1243;69187;-71
2023/05/18 10:29:57;;;;;;;3.80;3.50;;;;;;;25.40;37.07;97367.23;110221;1241;69529;-70
2023/05/18 10:32:29;;;;;;;4.20;3.70;;;;;;;25.70;37.84;97371.00;110238;1244;59687;-70
2023/05/18 10:34:59;;;;;;;3.10;2.80;;;;;;;25.16;36.97;97369.30;110169;1241;59740;-70
2023/05/18 10:37:30;;;;;;;4.10;3.40;;;;;;;24.97;36.75;97368.70;110202;1244;71259;-70
2023/05/18 10:40:02;;;;;;;4.90;3.80;;;;;;;24.61;38.17;97367.44;110221;1243;69301;-70
2023/05/18 10:42:33;;;;;;;4.90;3.80;;;;;;;24.31;38.63;97371.73;110178;1241;68524;-70
2023/05/18 10:45:06;;;;;;;5.20;3.10;;;;;;;24.29;38.93;97372.38;110207;1244;59753;-69
2023/05/18 10:47:39;;;;;;;4.90;3.40;;;;;;;24.35;38.77;97372.39;110179;1243;59768;-70
2023/05/18 10:50:10;;;;;;;6.10;3.60;;;;;;;24.21;39.10;97372.02;110223;1241;70983;-70
2023/05/18 10:52:40;;;;;;;5.00;3.70;;;;;;;24.00;40.17;97369.65;110253;1243;69355;-70
2023/05/18 10:55:09;;;;;;;4.20;3.80;;;;;;;23.78;40.50;97368.46;110227;1241;69232;-71
2023/05/18 10:57:45;;;;;;;5.00;3.70;;;;;;;23.55;40.46;97362.62;110164;1241;59722;-70
2023/05/18 11:00:15;;;;;;;3.60;3.10;;;;;;;23.80;40.72;97366.58;110208;1243;59601;-71
2023/05/18 11:02:49;;;;;;;4.30;3.40;;;;;;;24.33;42.65;97365.30;110170;1241;72370;-68
2023/05/18 11:05:25;;;;;;;5.40;3.50;;;;;;;24.89;40.07;97362.58;110200;1241;69036;-69
2023/05/18 11:08:04;;;;;;;4.10;3.50;;;;;;;25.57;40.66;97363.99;110194;1245;69365;-70
2023/05/18 11:10:35;;;;;;;4.10;3.10;;;;;;;26.06;38.80;97361.56;110185;1244;59680;-72
2023/05/18 11:13:05;;;;;;;3.90;3.20;;;;;;;26.53;38.54;97361.56;110188;1241;59973;-72
2023/05/18 11:15:54;;;;;;;3.40;3.10;;;;;;;26.90;37.61;97364.27;110190;1241;71961;-70
2023/05/18 11:18:42;;;;;;;4.20;2.90;;;;;;;27.31;34.97;97358.36;110195;1243;69793;-70
2023/05/18 11:21:50;;;;;;;3.60;3.10;;;;;;;27.16;33.38;97360.64;110159;1248;70121;-70
2023/05/18 11:24:23;;;;;;;3.70;3.10;;;;;;;25.95;34.55;97366.20;110194;1241;59998;-69
2023/05/18 11:26:54;;;;;;;4.90;3.10;;;;;;;26.29;35.05;97371.48;110213;1241;59722;-71
2023/05/18 11:29:29;;;;;;;3.70;2.90;;;;;;;26.21;34.61;97371.50;110206;1245;71445;-70
2023/05/18 11:31:58;;;;;;;4.70;3.00;;;;;;;26.22;34.49;97375.60;110200;1242;68742;-69
2023/05/18 11:34:51;;;;;;;4.20;3.00;;;;;;;25.90;34.73;97376.45;110188;1241;69338;-69
2023/05/18 11:37:38;;;;;;;3.60;3.10;;;;;;;25.53;35.11;97374.17;110219;1243;59676;-71
2023/05/18 11:40:12;;;;;;;4.60;3.10;;;;;;;25.06;36.12;97374.47;110225;1244;59673;-71
2023/05/18 11:42:41;;;;;;;3.80;3.20;;;;;;;24.68;36.43;97375.86;110221;1244;70654;-70